LIML Airport Information

Runway Information
Runway 18L Length 8005 ft width 197 ft
Elevation 353 ft Threshold 0 ft Heading 176
Runway 36R Length 8005 ft Width 197 ft
Elevation 337 ft Threshold 0 ft Heading 356
Runway 18R Length 1972 ft width 72 ft
Elevation 353 ft Threshold 0 ft Heading 176
Runway 36L Length 1972 ft Width 72 ft
Elevation 349 ft Threshold 0 ft Heading 356
Airport Frequencies
Type APP Name MILANO APP Frequency 132.7 MHZ
Type ATIS Name ATIS Frequency 135.55 MHZ
Type DEP Name MILANO DEP Frequency 126.75 MHZ
Type GND Name GND Frequency 121.8 MHZ
Type TWR Name TWR Frequency 118.1 MHZ
Airport Navaids
Type VOR-DME Name Linate Frequency 112250 KHZ
Type NDB Name Linate Frequency 386 KHZ
Airport Weather Information & NOTAM
ADDS - METARS form results

(2237 UTC 22 January 2020)
Data provider http://aviationweather.gov/metar/data/
 
METAR text: LIML 222220Z VRB01KT CAVOK 01/M01 Q1030 NOSIG
Conditions at: LIML (MILANO/LINATE , IT) observed 2220 UTC 22 January 2020
Temperature: 1.0°C (34°F)
Dewpoint: -1.0°C (30°F) [RH = 86%]
Pressure (altimeter): 30.41 inches Hg (1030.0 mb)
Winds: variable direction winds at 1 MPH (1 knots; 0.5 m/s)
Visibility: 6 or more miles (10+ km)
Ceiling: ceiling and visibility are OK
Clouds: unknown
Weather: no significant weather observed at this time

METAR text: LIML 222150Z 05002KT CAVOK 01/M01 Q1030 NOSIG
Conditions at: LIML (MILANO/LINATE , IT) observed 2150 UTC 22 January 2020
Temperature: 1.0°C (34°F)
Dewpoint: -1.0°C (30°F) [RH = 86%]
Pressure (altimeter): 30.41 inches Hg (1030.0 mb)
Winds: from the NE (50 degrees) at 2 MPH (2 knots; 1.0 m/s)
Visibility: 6 or more miles (10+ km)
Ceiling: ceiling and visibility are OK
Clouds: unknown
Weather: no significant weather observed at this time

Forecast for: LIML (MILANO/LINATE , IT)
Text: TAF LIML 221700Z 2218/2318 VRB05KT CAVOK
Forecast period: 1800 UTC 22 January 2020 to 1800 UTC 23 January 2020
Forecast type: FROM: standard forecast or significant change
Winds: variable direction winds at 6 MPH (5 knots; 2.6 m/s)
Visibility: 6 or more miles 10+ km)
Ceiling: unknown
Clouds: missing
Weather: NSW  (no significant weather)